EN451: August 7th-13th, 2008                                      
Station Year Month Day Local Decimal Decimal Bottom  Sampling Chlorophyll a Phaeo-pigments Salinity Sigma theta Pressure Temperature Conductivity Fluor Transmittance PAR Oxygen NO3+NO2 Si(OH)4 NH4 PO4
      Time Latitude Longitude Depth(m) Depth(m) (ug/L) (ug/L) Sal00 Sigma-00 (db) T090 C0S/m Upoly0 Xmiss Par Sbeox1ML/L (uM) (uM) (uM) (uM)
                                             
1 2008 8 8 1717 44.78 -65.73 92 80     32.5601 25.0665 81.2530 9.8923 3.5635 1.0833 81.7451 1.00E-12 2.6131 4.94 5.43 0.73 0.72
1 2008 8 8 1717 44.78 -65.73 92 50     32.5605 25.0614 49.5670 9.9219 3.5648 0.9668 82.0051 1.86E-02 2.6224 5.41 5.19 1.03 0.28
1 2008 8 8 1717 44.78 -65.73 92 40 3.39 0.01 32.5604 25.0603 39.9520 9.9268 3.5648 0.9413 82.0782 1.41E-01 2.6261 5.34 7.52 0.99 0.32
1 2008 8 8 1717 44.78 -65.73 92 30 3.59 0.00 32.5610 25.0536 29.9640 9.9694 3.5682 0.8933 82.3206 7.81E-01 2.6334 5.28 5.50 0.97 0.52
1 2008 8 8 1717 44.78 -65.73 92 20 3.26 0.01 32.5596 25.0434 19.9960 10.0230 3.5724 1.0646 82.2642 3.94E+00 2.6442 5.28 6.71 0.88 0.55
1 2008 8 8 1717 44.78 -65.73 92 10 4.13 0.01 32.5453 25.0050 9.8940 10.1849 3.5850 1.5375 81.8624 2.13E+01 2.6733 5.07 5.48 0.40 0.55
1 2008 8 8 1717 44.78 -65.73 92 1 3.40 0.01 32.5381 24.9545 1.6270 10.4494 3.6075 1.2198 81.8300 1.77E+02 2.7234 4.88 5.34 0.83 0.33
2 2008 8 8 1821 44.82 -65.80 93 82     32.6036 25.1713 82.0240 9.4570 3.5292 0.7357 82.1690 1.00E-12 2.5584 4.74 5.22 1.18 0.23
2 2008 8 8 1821 44.82 -65.80 93 50     32.5998 25.1477 50.1870 9.5815 3.5384 0.7986 83.1816 3.64E-03 2.5770 5.89 7.65 0.78 0.22
2 2008 8 8 1821 44.82 -65.80 93 40 2.94 0.00 32.5956 25.0957 39.8820 9.8792 3.5640 1.1057 83.0584 3.39E-02 2.6374 5.33 5.33 0.96 0.70
2 2008 8 8 1821 44.82 -65.80 93 30 3.87 0.00 32.5724 25.0558 30.0520 10.0097 3.5729 1.1077 82.7160 1.73E-01 2.6458 5.03 7.63 0.60 0.61
2 2008 8 8 1821 44.82 -65.80 93 20 2.83 0.00 32.5612 25.0083 20.0090 10.2404 3.5919 1.3356 82.2892 9.20E-01 2.6828 4.87 8.21 0.71 0.62
2 2008 8 8 1821 44.82 -65.80 93 10 1.86 0.85 32.5641 24.9936 10.0540 10.3397 3.6006 1.5618 82.2921 5.11E+00 2.6988 4.80 5.19 0.48 0.61
2 2008 8 8 1821 44.82 -65.80 93 1 3.97 0.01 32.5637 24.9847 1.8150 10.3893 3.6047 1.1954 82.0704 3.69E+01 2.7125 4.72 5.07 0.53 0.04
3 2008 8 8 1902 44.87 -65.88 100 90     32.7405 25.3938 86.7370 8.7196 3.4773 0.3427 83.6844 1.00E-12 2.4762 4.05 4.48 0.63 0.78
3 2008 8 8 1902 44.87 -65.88 100 50     32.7274 25.3818 49.6180 8.7270 3.4751 0.3931 84.1774 1.00E-12 2.4899 5.73 7.01 0.25 0.98
3 2008 8 8 1902 44.87 -65.88 100 40 6.06 0.00 32.7260 25.3643 39.9950 8.8330 3.4839 0.5470 84.3472 1.00E-12 2.4987 5.39 6.95 0.43 0.55
3 2008 8 8 1902 44.87 -65.88 100 30 3.81 0.00 32.7161 25.2548 29.8220 9.4789 3.5398 1.4540 83.2424 1.00E-12 2.6309 5.22 4.84 0.27 0.35
3 2008 8 8 1902 44.87 -65.88 100 20 7.39 0.00 32.6095 25.0997 19.5880 9.9180 3.5680 7.4070 74.9653 1.00E-12 2.7982 4.38 7.86 0.51 1.27
3 2008 8 8 1902 44.87 -65.88 100 10 6.59 0.00 32.5209 24.9389 10.1270 10.4633 3.6073 10.1281 63.4478 2.36E-02 3.0001 4.43 8.42 0.30 1.01
3 2008 8 8 1902 44.87 -65.88 100 1 4.87 0.01 32.2388 24.2463 1.5870 13.0427 3.8094 2.1773 73.5646 1.40E+00 3.3785 4.27 4.66 0.24 0.50
4 2008 8 8 1948 44.91 -65.95 98 87     32.7405 25.3938 86.7370 8.7196 3.4773 0.3427 83.6844 1.00E-12 2.4762        
4 2008 8 8 1948 44.91 -65.95 98 50     32.7274 25.3818 49.6180 8.7270 3.4751 0.3931 84.1774 1.00E-12 2.4899 7.54 6.73 1.46 0.53
4 2008 8 8 1948 44.91 -65.95 98 40 1.85 0.01 32.7260 25.3643 39.9950 8.8330 3.4839 0.5470 84.3472 1.00E-12 2.4987 7.47 8.83 2.09 0.42
4 2008 8 8 1948 44.91 -65.95 98 30 4.80 0.01 32.7161 25.2548 29.8220 9.4789 3.5398 1.4540 83.2424 1.00E-12 2.6309 4.15 7.02 2.31 0.58
4 2008 8 8 1948 44.91 -65.95 98 20 10.68 0.00 32.6095 25.0997 19.5880 9.9180 3.5680 7.4070 74.9653 1.00E-12 2.7982 1.60 1.78 2.26 1.06
4 2008 8 8 1948 44.91 -65.95 98 10 10.32 0.00 32.5209 24.9389 10.1270 10.4633 3.6073 10.1281 63.4478 2.36E-02 3.0001 1.33 1.06 1.69 0.54
4 2008 8 8 1948 44.91 -65.95 98 1 11.16 0.00 32.2388 24.2463 1.5870 13.0427 3.8094 2.1773 73.5646 1.40E+00 3.3785 0.03 0.26 1.75 0.44
5 2008 8 8 2030 44.96 -66.03 101 90     32.7569 25.4415 90.4340 8.4898 3.4587 0.1763 83.7428 2.79E-03 2.4434 6.42 6.57 0.97 0.47
5 2008 8 8 2030 44.96 -66.03 101 50     32.7554 25.4389 50.0160 8.4956 3.4574 0.1638 84.4124 1.00E-12 2.4559 8.20 9.70 0.28 0.30
5 2008 8 8 2030 44.96 -66.03 101 40 0.95 0.00 32.7547 25.4375 40.2090 8.4996 3.4572 0.1483 84.3560 3.07E-05 2.4566 8.31 10.23 0.61 0.38
5 2008 8 8 2030 44.96 -66.03 101 30 0.64 0.13 32.7532 25.4225 29.9750 8.5907 3.4647 0.2368 84.8348 1.00E-12 2.4888 6.95 9.85 0.84 0.21
5 2008 8 8 2030 44.96 -66.03 101 20 3.08 0.01 32.4530 25.0296 20.1440 9.5993 3.5244 1.5699 84.9756 2.22E-04 2.6287 3.76 5.97 0.88 0.81
5 2008 8 8 2030 44.96 -66.03 101 10 8.11 0.00 32.1742 24.6439 9.9620 10.6086 3.5856 5.3656 75.8194 2.38E-02 2.7813 2.92 3.23 0.71 0.22
5 2008 8 8 2030 44.96 -66.03 101 1 6.52 0.00 32.0251 24.0171 1.5880 13.3665 3.8158 3.4288 71.4949 1.74E+00 3.2884 0.21 0.26 0.59 0.03
6 2008 8 8 2120 45.00 -66.09 101 90     32.7213 25.4279 90.2060 8.3946 3.4470 0.1140 83.3420 1.21E-02 2.4329 8.13 7.18 0.09 0.73
6 2008 8 8 2120 45.00 -66.09 101 50     32.5493 25.2460 49.8380 8.7035 3.4560 0.2673 84.3580 1.00E-12 2.5109 7.34 10.67 0.42 0.69
6 2008 8 8 2120 45.00 -66.09 101 40 2.64 0.01 32.5160 25.2176 39.9540 8.7173 3.4536 0.1937 83.9488 1.15E-04 2.5254 7.12 9.31 0.49 1.03
6 2008 8 8 2120 45.00 -66.09 101 30 0.63 0.00 32.3919 25.0814 29.8440 8.9708 3.4635 0.2050 83.2645 1.00E-12 2.5782 6.41 6.04 0.55 0.63
6 2008 8 8 2120 45.00 -66.09 101 20 1.21 0.00 32.3572 25.0197 19.6770 9.1914 3.4791 0.2791 83.7442 1.00E-12 2.6157 5.30 7.09 0.39 0.07
6 2008 8 8 2120 45.00 -66.09 101 10 12.89 0.00 32.2827 24.7224 9.8010 10.6435 3.5995 7.6574 68.1049 2.74E-02 2.8029 2.41 2.63 0.58 0.36
6 2008 8 8 2120 45.00 -66.09 101 1 10.38 0.00 32.1415 24.1221 1.5460 13.2907 3.8214 4.5445 68.9409 1.94E+00 3.2632 0.12 0.22 0.30 0.13
7 2008 8 8 2200 45.05 -66.16 91 80     32.3863 25.0717 80.3280 9.0101 3.4686 0.2691 76.8520 5.35E-04 2.5759        
7 2008 8 8 2200 45.05 -66.16 91 50     32.3453 25.0107 49.5150 9.1925 3.4793 0.2231 80.0821 1.00E-12 2.6122 5.27 5.07 0.27 0.71
7 2008 8 8 2200 45.05 -66.16 91 40 1.03 0.00 32.3384 24.9972 39.7450 9.2431 3.4827 0.2417 80.8581 1.45E-04 2.6174 5.09 5.14 0.28 0.84
7 2008 8 8 2200 45.05 -66.16 91 30 1.17 0.00 32.3331 24.9811 29.5120 9.3179 3.4883 0.3009 81.9433 1.00E-12 2.6307 4.99 4.98 0.61 0.48
7 2008 8 8 2200 45.05 -66.16 91 20 1.61 0.00 32.3207 24.9503 19.8630 9.4498 3.4983 0.4224 82.7651 1.00E-12 2.6478 4.76 4.72 0.47 0.35
7 2008 8 8 2200 45.05 -66.16 91 10 3.19 0.01 32.2233 24.7355 9.8050 10.2943 3.5627 1.6322 80.4490 2.73E-02 2.7483 3.98 3.76 0.47 0.45
7 2008 8 8 2200 45.05 -66.16 91 1 4.80 0.00 31.9494 23.8952 1.3160 13.6831 3.8361 2.5367 73.8193 3.20E+00 3.1179 1.42 3.19 0.43 0.40
8 2008 8 8 2240 45.09 -66.23 67 57     32.3345 25.0180 56.7770 9.0929 3.4699 0.2641 75.3406 1.00E-12 2.6030 3.03 2.92 0.54 0.74
8 2008 8 8 2240 45.09 -66.23 67 50     32.3195 24.9965 49.9910 9.1546 3.4735 0.2424 76.5557 1.00E-12 2.6089 5.28 5.22 0.39 0.94
8 2008 8 8 2240 45.09 -66.23 67 40 1.29 0.02 32.0842 24.6524 40.1250 10.1470 3.5372 0.2809 76.0333 6.14E-05 2.6850 4.36 4.41 1.00 0.77
8 2008 8 8 2240 45.09 -66.23 67 30 1.78 0.08 32.0127 24.5201 30.0710 10.5990 3.5694 0.4529 80.2081 1.00E-12 2.7387 3.29 3.41 1.12 0.58
8 2008 8 8 2240 45.09 -66.23 67 20 2.37 0.00 31.8365 24.2661 20.0230 11.2692 3.6101 0.6211 80.3396 1.00E-12 2.7951 2.98 4.25 0.58 0.65
8 2008 8 8 2240 45.09 -66.23 67 10 3.93 0.01 31.4144 23.7918 9.7930 12.0772 3.6372 1.2472 80.1885 7.65E-03 2.8996 2.37 4.33 0.35 0.59
8 2008 8 8 2240 45.09 -66.23 67 1 3.10 0.01 29.2277 21.9164 1.2970 13.0500 3.4882 1.0659 77.3348 4.42E+00 2.8791 2.93 6.78 0.84 0.72
9 2008 8 9 0140 44.98 -66.83 69 59     32.3654 25.0813 58.8610 8.8396 3.4507 0.1769 66.5106 1.00E-12 2.5014 7.06 7.25 0.09 0.76
9 2008 8 9 0140 44.98 -66.83 69 50     32.3176 25.0215 50.2500 8.9845 3.4585 0.1975 70.5186 1.00E-12 2.5179 7.15 7.19 0.32 0.91
9 2008 8 9 0140 44.98 -66.83 69 40 1.72 0.00 32.0203 24.6311 39.7950 9.9740 3.5157 0.5451 79.1985 1.00E-12 2.6108 5.82 6.23 0.75 0.84
9 2008 8 9 0140 44.98 -66.83 69 30 2.94 0.00 31.7649 24.2855 29.7680 10.8417 3.5657 0.9394 80.5187 1.72E-03 2.7440 3.54 4.75 0.79 0.78
9 2008 8 9 0140 44.98 -66.83 69 20 3.58 0.01 31.7278 24.2386 19.9010 10.9447 3.5706 1.0073 79.8005 1.56E-03 2.7387 3.32 4.98 0.42 0.82
9 2008 8 9 0140 44.98 -66.83 69 10 5.07 0.01 31.6533 24.1330 9.7550 11.2157 3.5863 1.9056 77.9019 1.27E-02 2.8152 2.92 4.90 0.35 1.03
9 2008 8 9 0140 44.98 -66.83 69 1 13.84 0.01 31.5010 23.8969 1.2550 11.8699 3.6276 3.1790 74.3991 3.87E+00 3.0982 1.01 2.71 0.36 1.22
10 2008 8 9 0230 44.94 -66.81 68 58     32.5625 25.3018 57.9860 8.4021 3.4312 0.1165 78.9027 1.00E-12 2.4562 8.00 7.48 0.65 0.95
10 2008 8 9 0230 44.94 -66.81 68 50     32.4759 25.2071 49.8250 8.5800 3.4382 0.1184 80.0006 1.00E-12 2.4766 7.88 7.14 0.37 0.97
10 2008 8 9 0230 44.94 -66.81 68 40 1.51 0.00 32.1844 24.8549 40.0000 9.3817 3.4799 0.2523 80.4711 6.65E-04 2.5663 6.31 6.49 0.97 1.07
10 2008 8 9 0230 44.94 -66.81 68 30 1.79 0.00 32.0843 24.7224 29.9690 9.7196 3.4993 0.3171 81.0686 1.00E-12 2.6015 5.72 6.22 0.51 1.48
10 2008 8 9 0230 44.94 -66.81 68 20 1.50 0.25 31.9641 24.5576 19.7440 10.1514 3.5248 0.4336 81.0907 9.22E-05 2.6472 5.03 5.80 0.66 1.34
10 2008 8 9 0230 44.94 -66.81 68 10 4.30 0.00 31.7051 24.2089 9.7140 11.0123 3.5738 1.1089 80.8022 1.17E-02 2.7564 3.17 4.86 0.25 1.23
10 2008 8 9 0230 44.94 -66.81 68 1 9.78 0.01 31.5142 23.9256 1.4850 11.7681 3.6201 3.0830 76.7603 1.97E+00 3.0099 1.21 3.46 0.02 0.47
11 2008 8 9 0310 44.89 -66.68 107 97     32.7454 25.5002 96.8910 8.0325 3.4177 0.0990 79.5404 1.00E-12 2.3980 6.24 6.32 0.79 0.61
11 2008 8 9 0310 44.89 -66.68 107 50     32.1151 24.7570 49.9660 9.6565 3.4976 0.2860 79.5959 1.00E-12 2.6197 6.26 6.11 0.70 0.73
11 2008 8 9 0310 44.89 -66.68 107 40 1.70 0.00 31.8890 24.4904 40.0170 10.2057 3.5229 0.3526 80.1704 6.14E-05 2.6688 4.49 4.97 1.01 0.65
11 2008 8 9 0310 44.89 -66.68 107 30 1.46 0.16 31.7462 24.2781 29.7940 10.8004 3.5602 0.4099 80.1125 1.00E-12 2.7433 3.54 4.00 0.77 0.66
11 2008 8 9 0310 44.89 -66.68 107 20 3.07 0.01 31.6497 24.1537 20.1730 11.0827 3.5748 0.7613 80.8974 1.00E-12 2.7899 3.00 4.76 0.82 0.73
11 2008 8 9 0310 44.89 -66.68 107 10 7.70 0.00 31.3283 23.7991 10.0970 11.6714 3.5928 2.3735 78.4435 7.87E-03 2.9438 1.23 2.70 0.80 0.71
11 2008 8 9 0310 44.89 -66.68 107 1 10.32 0.01 30.5980 23.0914 1.2460 12.4403 3.5828 1.8714 77.6958 2.27E+00 2.9931 0.81 2.98 0.74 0.68
12 2008 8 9 0400 44.85 -66.61 128 118     33.1090 25.8546 118.0450 7.5526 3.4102 0.0380 82.7788 7.42E-03 2.2870 10.88 9.78 0.54 1.02
12 2008 8 9 0400 44.85 -66.61 128 100     33.0167 25.7301 100.2450 7.9156 3.4330 0.0685 84.8353 3.07E-05 2.3426 10.16 9.23 0.63 1.00
12 2008 8 9 0400 44.85 -66.61 128 50     32.3491 25.0275 50.1610 9.1041 3.4720 0.3158 86.3022 1.00E-12 2.5881 6.41 5.75 0.38 0.58
12 2008 8 9 0400 44.85 -66.61 128 40 3.97 0.00 32.1875 24.7050 39.8490 10.3134 3.5621 1.4147 82.7494 4.20E-04 2.7549 3.25 3.54 0.84 0.47
12 2008 8 9 0400 44.85 -66.61 128 30 7.28 0.00 32.1634 24.5370 29.7980 11.1762 3.6356 3.8455 77.2460 1.00E-12 2.9146 0.98 0.93 0.66 0.12
12 2008 8 9 0400 44.85 -66.61 128 20 9.01 0.00 31.8654 24.2129 19.5700 11.6899 3.6502 3.0649 77.8082 3.07E-05 3.0086 0.12 1.01 0.38 0.33
12 2008 8 9 0400 44.85 -66.61 128 10 8.59 0.01 31.3627 23.6396 9.8580 12.6746 3.6842 2.4738 77.0816 1.56E-02 3.0591 0.11 1.80 0.06 0.47
12 2008 8 9 0400 44.85 -66.61 128 1 6.44 0.01 31.3600 23.6238 1.5050 12.7451 3.6897 2.5274 76.9727 1.85E+00 3.0642 0.05 1.83 0.00 0.46
13 2008 8 9 0450 44.80 -66.53 132 122     33.0681 25.8104 122.4550 7.6394 3.4143 0.0361 82.6115 6.96E-04 2.3045 10.56 9.82 0.60 0.52
13 2008 8 9 0450 44.80 -66.53 132 100     33.0469 25.7774 99.8140 7.7511 3.4212 0.0399 84.7181 1.00E-12 2.3249 10.75 9.32 0.56 0.74
13 2008 8 9 0450 44.80 -66.53 132 50     32.6243 25.2403 49.7620 9.1198 3.4999 0.3158 86.2178 1.00E-12 2.5550 7.23 8.29 0.71 0.85
13 2008 8 9 0450 44.80 -66.53 132 40 2.08 0.01 32.6010 25.2064 39.9700 9.2189 3.5060 0.3582 86.1687 1.99E-04 2.5736 6.36 6.00 0.31 0.82
13 2008 8 9 0450 44.80 -66.53 132 30 0.98 0.30 32.5836 25.1848 30.1700 9.2684 3.5083 0.4722 85.7846 1.00E-12 2.5880 6.05 5.53 0.20 0.85
13 2008 8 9 0450 44.80 -66.53 132 20 8.59 0.01 32.3773 24.8459 19.9650 10.3526 3.5836 3.8225 77.5619 1.00E-12 2.7974 2.81 3.03 0.47 0.39
13 2008 8 9 0450 44.80 -66.53 132 10 9.55 0.01 32.2241 24.5277 9.9760 11.4888 3.6688 4.2249 72.0934 4.91E-02 3.2062 0.12 0.10 0.81 0.55
13 2008 8 9 0450 44.80 -66.53 132 1 3.10 0.00 31.8576 23.8076 1.5400 13.7660 3.8337 1.9044 75.7899 2.11E+00 3.1777 0.12 0.12 0.48 0.48
14 2008 8 9 0540 44.76 -66.47 170 160     33.2015 25.9615 160.4660 7.3122 3.3994 0.0442 82.1180 1.00E-12 2.2472 11.82 11.74 1.04 0.72
14 2008 8 9 0540 44.76 -66.47 170 150     33.2014 25.9614 150.0410 7.3116 3.3989 0.0623 82.3848 2.35E-03 2.2485 11.91 10.21 0.64 0.62
14 2008 8 9 0540 44.76 -66.47 170 100     33.1476 25.8946 100.1370 7.4828 3.4069 0.0660 85.3229 1.00E-12 2.2873 11.71 9.90 0.22 0.76
14 2008 8 9 0540 44.76 -66.47 170 50     32.8003 25.5281 50.0020 8.1314 3.4295 0.1588 85.9313 3.61E-04 2.4192 9.74 9.39 0.31 0.44
14 2008 8 9 0540 44.76 -66.47 170 40 0.33 0.26 32.5184 25.2496 39.9460 8.5179 3.4363 0.2056 86.5774 1.61E-02 2.5170 7.90 8.28 0.60 0.79
14 2008 8 9 0540 44.76 -66.47 170 30 0.76 0.00 32.2428 24.8873 29.9230 9.4642 3.4924 0.3794 86.7545 7.23E-02 2.6467 5.69 5.08 0.90 0.69
14 2008 8 9 0540 44.76 -66.47 170 20 1.86 0.00 31.9483 24.2849 19.9680 11.6485 3.6551 1.2683 83.8002 3.25E-01 2.8852 2.80 7.13 0.82 0.71
14 2008 8 9 0540 44.76 -66.47 170 10 3.68 0.01 31.7915 23.8527 9.9140 13.2856 3.7839 2.1093 80.0114 2.36E+00 3.0550 0.10 1.65 0.79 0.37
14 2008 8 9 0540 44.76 -66.47 170 1 2.60 0.01 31.7478 23.6617 1.2630 14.0658 3.8487 1.3500 79.6724 2.21E+01 3.0638 0.12 1.43 0.99 0.41
15 2008 8 9 0632 44.71 -66.40 167 157     33.2975 26.0598 157.8250 7.1459 3.3934 0.0461 82.0542 1.00E-12 2.2252        
15 2008 8 9 0632 44.71 -66.40 167 150     33.2963 26.0594 149.7350 7.1420 3.3926 0.0367 82.3657 1.00E-12 2.2259 12.69 13.35 1.36 0.99
15 2008 8 9 0632 44.71 -66.40 167 100     33.2595 26.0305 99.9160 7.1370 3.3866 0.0367 83.2282 1.00E-12 2.2400 12.57 10.64 1.21 1.05
15 2008 8 9 0632 44.71 -66.40 167 50     32.4210 25.1573 49.8960 8.6252 3.4369 0.1638 87.1013 8.85E-03 2.5500 7.37 5.96 0.57 0.79
15 2008 8 9 0632 44.71 -66.40 167 40 0.61 0.17 32.2515 24.9072 39.8630 9.3825 3.4865 0.4517 86.7510 5.57E-02 2.6448 5.32 4.67 1.18 0.65
15 2008 8 9 0632 44.71 -66.40 167 30 1.66 0.00 32.1514 24.7270 29.7120 10.0119 3.5315 0.7058 85.9445 2.13E-01 2.7174 3.92 4.21 0.64 0.63
15 2008 8 9 0632 44.71 -66.40 167 20 2.99 0.18 31.9816 24.3375 19.6200 11.5002 3.6454 1.7773 82.2499 1.15E+00 2.9099 1.15 2.32 2.19 0.49
15 2008 8 9 0632 44.71 -66.40 167 10 3.15 0.00 31.7876 23.7789 9.6390 13.6408 3.8152 1.6359 78.5755 9.04E+00 3.0590 0.19 1.21 2.32 0.39
15 2008 8 9 0632 44.71 -66.40 167 1 2.06 0.00 31.7294 23.5942 1.3180 14.3243 3.8699 1.2229 79.9560 7.34E+01 3.0394 0.00 1.72 1.76 0.41
16 2008 8 9 0739 44.67 -66.33 135 125     33.2861 26.0394 125.1640 7.2269 3.3981 0.0361 84.5218 1.00E-12 2.2441 12.52 13.48 1.04 0.98
16 2008 8 9 0739 44.67 -66.33 135 100     33.2618 26.0131 99.8840 7.2766 3.3992 0.0442 84.6563 1.00E-12 2.2566 12.36 11.92 0.57 0.91
16 2008 8 9 0739 44.67 -66.33 135 50     32.6309 25.3673 49.9870 8.3215 3.4302 0.1271 85.2690 7.79E-02 2.4658 8.70 7.37 0.47 0.79
16 2008 8 9 0739 44.67 -66.33 135 40 0.80 0.00 32.4527 25.1691 40.1210 8.7104 3.4470 0.1869 85.4206 2.88E-01 2.5342 7.30 6.31 1.04 1.14
16 2008 8 9 0739 44.67 -66.33 135 30 0.89 0.00 32.3475 25.0290 29.7020 9.0845 3.4692 0.2529 85.3440 9.73E-01 2.5793 6.23 5.76 0.31 0.73
16 2008 8 9 0739 44.67 -66.33 135 20 1.78 0.00 32.0436 24.5351 19.7250 10.6513 3.5766 0.8441 85.0237 3.51E+00 2.7949 2.46 3.76 0.12 0.65
16 2008 8 9 0739 44.67 -66.33 135 10 3.72 0.00 31.8030 23.8263 9.7900 13.4634 3.8010 1.6539 79.4801 2.34E+01 3.0651 0.12 1.56 0.42 0.41
16 2008 8 9 0739 44.67 -66.33 135 1 3.25 0.00 31.7543 23.6193 1.5520 14.2959 3.8701 1.2465 79.0867 1.84E+02 3.0677 0.12 1.34 0.62 0.29
17 2008 8 9 0847 44.63 -66.26 139 129     33.1192 25.8373 129.3820 7.7329 3.4276 0.0847 83.2914 1.00E-12 2.3046 11.04 9.46 0.45 0.84
17 2008 8 9 0847 44.63 -66.26 139 100     33.0831 25.7851 99.8780 7.8957 3.4374 0.0872 84.2751 2.60E-04 2.3309 10.65 9.56 0.33 0.95
17 2008 8 9 0847 44.63 -66.26 139 50     32.5955 25.2180 50.0960 9.1187 3.4971 0.2212 86.0706 1.00E-12 2.5433 7.54 6.71 0.01 0.83
17 2008 8 9 0847 44.63 -66.26 139 40 1.12 0.09 32.3850 24.9935 39.8350 9.4956 3.5094 0.4348 84.6876 1.00E-12 2.6177 5.84 6.33 0.23 0.71
17 2008 8 9 0847 44.63 -66.26 139 30 1.92 0.00 32.2165 24.8074 29.9280 9.8314 3.5221 0.6996 83.2345 1.00E-12 2.6575 5.29 5.15 0.16 0.59
17 2008 8 9 0847 44.63 -66.26 139 20 3.49 0.00 32.0269 24.4431 19.8890 11.1053 3.6150 1.4621 81.9267 8.34E-03 2.8519 1.71 5.39 0.15 0.44
17 2008 8 9 0847 44.63 -66.26 139 10 5.91 0.01 31.9275 24.1488 10.0320 12.2962 3.7101 3.0270 76.8697 2.25E-01 3.0160 0.05 3.38 0.27 0.74
17 2008 8 9 0847 44.63 -66.26 139 1 6.19 0.00 31.8298 23.8466 1.2600 13.4645 3.8036 1.0247 76.6573 3.18E+00 3.1057 0.12 0.52 0.92 0.32
18 2008 8 9 0935 44.58 -66.19 117 100     32.9631 25.6085 99.1760 8.4556 3.4757 0.1576 83.2287 1.00E-12 2.4069 8.64 8.16 0.62 0.77
18 2008 8 9 0935 44.58 -66.19 117 50     32.8440 25.4198 49.7410 9.0714 3.5168 0.2729 85.9273 2.69E-01 2.5251 6.85 6.82 0.30 0.67
18 2008 8 9 0935 44.58 -66.19 117 40 1.49 0.00 32.7788 25.3244 40.4730 9.3513 3.5350 0.4167 85.9519 8.11E-01 2.5827 6.13 6.25 0.01 0.87
18 2008 8 9 0935 44.58 -66.19 117 30 1.94 0.00 32.7394 25.2595 30.0680 9.5625 3.5495 0.5251 85.6860 2.74E+00 2.6216 5.30 5.66 0.22 0.66
18 2008 8 9 0935 44.58 -66.19 117 20 2.18 0.00 32.7037 25.2111 19.9370 9.6874 3.5567 0.6448 85.5506 8.35E+00 2.6486 5.03 8.40 1.15 0.68
18 2008 8 9 0935 44.58 -66.19 117 10 10.38 0.00 32.4248 24.7984 9.7060 10.8433 3.6316 4.6554 74.8539 4.68E+01 2.9376 1.71 2.59 0.81 0.45
18 2008 8 9 0935 44.58 -66.19 117 1 12.23 0.01 32.3890 24.6911 1.6520 11.2919 3.6677 2.9846 72.1101 6.15E+02 3.1314 0.22 4.00 0.38 0.24
19 2008 8 9 1025 44.54 -66.11 91 80     32.7948 25.3444 79.5740 9.3082 3.5344 0.4161 81.8231 1.00E-12 2.5483 6.09 6.36 0.51 0.71
19 2008 8 9 1025 44.54 -66.11 91 50     32.6764 25.1576 50.3580 9.8875 3.5732 1.0428 83.5230 7.81E-02 2.6693 4.50 4.97 0.38 0.61
19 2008 8 9 1025 44.54 -66.11 91